Colden Common, United Kingdom
Current Conditions -  °F | °C
As of 12:50 PM on Monday 20 Oct 2014 (Local Time) from EGHI Reporting Station
Scattered Clouds Scattered Clouds  
Wind Chill: 59°   Ceiling: Unl
Heat Index: 59°   Visibility: 6mi
Dew Point: 46°   Wind: 12mph
Humidity: 63%   Direction: 270°W
Pressure: 30.03"   Gusts: NA
Location:  50.99°N, 1.31°W
Report Text: EGHI 201150Z 27010KT 230V300 9999 FEW020 SCT045 15/08 Q1017
Loading
Personal Weather Stations






























Interactive Weather Map New forecast layout! Learn more

10-Day Weather Forecast

Advertisements
Track Severe Weather on mobile